Terminal Aerodrome Forecast
Issued by NWS

Current Version | Previous Version | Text Only | Print | Product List | Glossary On
Versions: 1 2 3 4 5 6 7 8 9 10 11 12 13 14 15 16 17
000
FTUS43 KILX 300500
TAFCMI
TAF
KCMI 300530Z 3006/3106 18008KT P6SM VCSH BKN050
     FM301700 21012G20KT P6SM VCTS BKN035CB
     FM310000 20008KT P6SM VCSH BKN040=

USA.gov is the U.S. government's official web portal to all federal, state and local government web resources and services.